sensor_id;sensor_type;location;lat;lon;timestamp;P1;durP1;ratioP1;P2;durP2;ratioP2
5042;SDS011;2540;50.928;6.856;2022-09-23T00:02:19;6.03;;;3.27;;
5042;SDS011;2540;50.928;6.856;2022-09-23T00:04:45;4.43;;;2.80;;
5042;SDS011;2540;50.928;6.856;2022-09-23T00:07:10;3.93;;;2.30;;
5042;SDS011;2540;50.928;6.856;2022-09-23T00:09:36;7.97;;;2.23;;
5042;SDS011;2540;50.928;6.856;2022-09-23T00:12:01;7.90;;;2.67;;
5042;SDS011;2540;50.928;6.856;2022-09-23T00:14:26;5.03;;;2.60;;
5042;SDS011;2540;50.928;6.856;2022-09-23T00:16:51;4.30;;;2.80;;
5042;SDS011;2540;50.928;6.856;2022-09-23T00:19:16;8.60;;;2.80;;
5042;SDS011;2540;50.928;6.856;2022-09-23T00:21:42;7.17;;;2.90;;
5042;SDS011;2540;50.928;6.856;2022-09-23T00:24:07;3.67;;;2.70;;
5042;SDS011;2540;50.928;6.856;2022-09-23T00:26:32;3.60;;;2.63;;
5042;SDS011;2540;50.928;6.856;2022-09-23T00:28:57;3.50;;;2.70;;
5042;SDS011;2540;50.928;6.856;2022-09-23T00:31:23;5.20;;;3.00;;
5042;SDS011;2540;50.928;6.856;2022-09-23T00:33:52;5.07;;;2.20;;
5042;SDS011;2540;50.928;6.856;2022-09-23T00:36:18;8.33;;;2.37;;
5042;SDS011;2540;50.928;6.856;2022-09-23T00:38:43;2.60;;;1.90;;
5042;SDS011;2540;50.928;6.856;2022-09-23T00:41:08;4.67;;;2.60;;
5042;SDS011;2540;50.928;6.856;2022-09-23T00:46:13;8.73;;;2.50;;
5042;SDS011;2540;50.928;6.856;2022-09-23T00:48:40;4.20;;;2.40;;
5042;SDS011;2540;50.928;6.856;2022-09-23T00:51:07;4.70;;;2.80;;
5042;SDS011;2540;50.928;6.856;2022-09-23T00:53:33;4.43;;;3.13;;
5042;SDS011;2540;50.928;6.856;2022-09-23T00:56:02;3.10;;;2.40;;
5042;SDS011;2540;50.928;6.856;2022-09-23T00:58:28;2.40;;;2.03;;
5042;SDS011;2540;50.928;6.856;2022-09-23T01:00:56;9.60;;;2.37;;
5042;SDS011;2540;50.928;6.856;2022-09-23T01:03:23;3.10;;;2.33;;
5042;SDS011;2540;50.928;6.856;2022-09-23T01:05:49;7.13;;;2.90;;
5042;SDS011;2540;50.928;6.856;2022-09-23T01:08:14;6.33;;;2.73;;
5042;SDS011;2540;50.928;6.856;2022-09-23T01:13:07;3.63;;;2.70;;
5042;SDS011;2540;50.928;6.856;2022-09-23T01:15:47;7.50;;;2.67;;
5042;SDS011;2540;50.928;6.856;2022-09-23T01:29:01;14.47;;;6.90;;
5042;SDS011;2540;50.928;6.856;2022-09-23T01:36:38;27.10;;;12.87;;
5042;SDS011;2540;50.928;6.856;2022-09-23T01:39:07;15.83;;;8.00;;
5042;SDS011;2540;50.928;6.856;2022-09-23T01:41:44;23.10;;;10.50;;
5042;SDS011;2540;50.928;6.856;2022-09-23T01:44:21;19.93;;;9.53;;
5042;SDS011;2540;50.928;6.856;2022-09-23T01:46:50;15.63;;;7.67;;
5042;SDS011;2540;50.928;6.856;2022-09-23T01:49:28;12.97;;;7.20;;
5042;SDS011;2540;50.928;6.856;2022-09-23T01:52:09;22.13;;;8.10;;
5042;SDS011;2540;50.928;6.856;2022-09-23T01:54:39;9.67;;;6.57;;
5042;SDS011;2540;50.928;6.856;2022-09-23T01:57:08;11.13;;;6.60;;
5042;SDS011;2540;50.928;6.856;2022-09-23T01:59:39;10.50;;;6.03;;
5042;SDS011;2540;50.928;6.856;2022-09-23T02:02:08;7.33;;;5.30;;
5042;SDS011;2540;50.928;6.856;2022-09-23T02:04:48;8.07;;;5.03;;
5042;SDS011;2540;50.928;6.856;2022-09-23T02:07:35;5.57;;;4.17;;
5042;SDS011;2540;50.928;6.856;2022-09-23T02:10:05;5.33;;;3.73;;
5042;SDS011;2540;50.928;6.856;2022-09-23T02:12:31;7.53;;;3.50;;
5042;SDS011;2540;50.928;6.856;2022-09-23T02:15:00;5.70;;;3.30;;
5042;SDS011;2540;50.928;6.856;2022-09-23T02:17:29;4.67;;;2.90;;
5042;SDS011;2540;50.928;6.856;2022-09-23T02:19:59;4.87;;;2.83;;
5042;SDS011;2540;50.928;6.856;2022-09-23T02:22:27;5.63;;;3.07;;
5042;SDS011;2540;50.928;6.856;2022-09-23T02:24:53;7.27;;;3.80;;
5042;SDS011;2540;50.928;6.856;2022-09-23T02:27:22;4.43;;;3.60;;
5042;SDS011;2540;50.928;6.856;2022-09-23T02:29:50;5.03;;;3.43;;
5042;SDS011;2540;50.928;6.856;2022-09-23T02:35:11;3.70;;;2.83;;
5042;SDS011;2540;50.928;6.856;2022-09-23T02:42:38;4.23;;;2.43;;
5042;SDS011;2540;50.928;6.856;2022-09-23T02:45:08;2.80;;;1.97;;
5042;SDS011;2540;50.928;6.856;2022-09-23T02:47:34;4.40;;;2.50;;
5042;SDS011;2540;50.928;6.856;2022-09-23T02:50:00;3.67;;;2.13;;
5042;SDS011;2540;50.928;6.856;2022-09-23T02:52:25;3.60;;;2.27;;
5042;SDS011;2540;50.928;6.856;2022-09-23T02:54:51;2.83;;;2.33;;
5042;SDS011;2540;50.928;6.856;2022-09-23T02:57:16;2.60;;;1.80;;
5042;SDS011;2540;50.928;6.856;2022-09-23T02:59:41;5.93;;;2.93;;
5042;SDS011;2540;50.928;6.856;2022-09-23T03:02:12;4.70;;;1.80;;
5042;SDS011;2540;50.928;6.856;2022-09-23T03:07:16;6.47;;;2.67;;
5042;SDS011;2540;50.928;6.856;2022-09-23T03:15:21;2.93;;;2.10;;
5042;SDS011;2540;50.928;6.856;2022-09-23T03:20:41;7.93;;;2.77;;
5042;SDS011;2540;50.928;6.856;2022-09-23T03:23:09;5.57;;;2.17;;
5042;SDS011;2540;50.928;6.856;2022-09-23T03:25:37;2.90;;;2.20;;
5042;SDS011;2540;50.928;6.856;2022-09-23T03:28:03;2.40;;;2.20;;
5042;SDS011;2540;50.928;6.856;2022-09-23T03:30:30;5.23;;;2.50;;
5042;SDS011;2540;50.928;6.856;2022-09-23T03:32:59;8.03;;;2.60;;
5042;SDS011;2540;50.928;6.856;2022-09-23T03:35:26;2.33;;;1.77;;
5042;SDS011;2540;50.928;6.856;2022-09-23T03:37:54;5.93;;;2.60;;
5042;SDS011;2540;50.928;6.856;2022-09-23T03:40:25;3.27;;;2.60;;
5042;SDS011;2540;50.928;6.856;2022-09-23T03:42:52;5.13;;;2.40;;
5042;SDS011;2540;50.928;6.856;2022-09-23T03:45:21;3.00;;;2.40;;
5042;SDS011;2540;50.928;6.856;2022-09-23T03:47:47;4.30;;;2.27;;
5042;SDS011;2540;50.928;6.856;2022-09-23T03:50:12;5.90;;;2.30;;
5042;SDS011;2540;50.928;6.856;2022-09-23T03:52:37;3.77;;;2.90;;
5042;SDS011;2540;50.928;6.856;2022-09-23T03:55:03;7.13;;;2.50;;
5042;SDS011;2540;50.928;6.856;2022-09-23T03:57:29;5.10;;;2.70;;
5042;SDS011;2540;50.928;6.856;2022-09-23T03:59:55;3.30;;;1.90;;
5042;SDS011;2540;50.928;6.856;2022-09-23T04:02:20;5.67;;;2.37;;
5042;SDS011;2540;50.928;6.856;2022-09-23T04:04:46;2.70;;;2.20;;
5042;SDS011;2540;50.928;6.856;2022-09-23T04:07:11;7.60;;;2.50;;
5042;SDS011;2540;50.928;6.856;2022-09-23T04:09:37;3.63;;;2.30;;
5042;SDS011;2540;50.928;6.856;2022-09-23T04:12:02;5.10;;;2.30;;
5042;SDS011;2540;50.928;6.856;2022-09-23T04:14:28;3.10;;;2.30;;
5042;SDS011;2540;50.928;6.856;2022-09-23T04:16:53;2.70;;;2.03;;
5042;SDS011;2540;50.928;6.856;2022-09-23T04:19:18;2.50;;;1.93;;
5042;SDS011;2540;50.928;6.856;2022-09-23T04:21:43;3.07;;;2.17;;
5042;SDS011;2540;50.928;6.856;2022-09-23T04:24:09;4.10;;;2.30;;
5042;SDS011;2540;50.928;6.856;2022-09-23T04:26:35;3.57;;;2.50;;
5042;SDS011;2540;50.928;6.856;2022-09-23T04:29:00;7.53;;;2.40;;
5042;SDS011;2540;50.928;6.856;2022-09-23T04:31:26;4.27;;;2.10;;
5042;SDS011;2540;50.928;6.856;2022-09-23T04:33:52;8.10;;;2.77;;
5042;SDS011;2540;50.928;6.856;2022-09-23T04:36:17;4.63;;;2.50;;
5042;SDS011;2540;50.928;6.856;2022-09-23T04:38:43;3.30;;;2.30;;
5042;SDS011;2540;50.928;6.856;2022-09-23T04:41:09;4.97;;;2.27;;
5042;SDS011;2540;50.928;6.856;2022-09-23T04:43:34;3.47;;;2.07;;
5042;SDS011;2540;50.928;6.856;2022-09-23T04:46:00;3.97;;;2.87;;
5042;SDS011;2540;50.928;6.856;2022-09-23T04:48:26;4.33;;;2.60;;
5042;SDS011;2540;50.928;6.856;2022-09-23T04:50:52;3.33;;;2.33;;
5042;SDS011;2540;50.928;6.856;2022-09-23T04:53:17;3.50;;;2.30;;
5042;SDS011;2540;50.928;6.856;2022-09-23T04:55:43;4.70;;;2.93;;
5042;SDS011;2540;50.928;6.856;2022-09-23T04:58:08;4.33;;;3.13;;
5042;SDS011;2540;50.928;6.856;2022-09-23T05:00:34;5.57;;;2.83;;
5042;SDS011;2540;50.928;6.856;2022-09-23T05:02:59;5.67;;;3.70;;
5042;SDS011;2540;50.928;6.856;2022-09-23T05:05:24;3.13;;;2.83;;
5042;SDS011;2540;50.928;6.856;2022-09-23T05:07:53;8.00;;;3.37;;
5042;SDS011;2540;50.928;6.856;2022-09-23T05:10:18;6.83;;;3.77;;
5042;SDS011;2540;50.928;6.856;2022-09-23T05:12:44;6.20;;;3.30;;
5042;SDS011;2540;50.928;6.856;2022-09-23T05:15:09;4.53;;;2.80;;
5042;SDS011;2540;50.928;6.856;2022-09-23T05:17:34;3.57;;;2.27;;
5042;SDS011;2540;50.928;6.856;2022-09-23T05:20:01;3.70;;;2.90;;
5042;SDS011;2540;50.928;6.856;2022-09-23T05:22:27;3.23;;;2.43;;
5042;SDS011;2540;50.928;6.856;2022-09-23T05:24:53;4.00;;;2.70;;
5042;SDS011;2540;50.928;6.856;2022-09-23T05:27:18;5.80;;;2.80;;
5042;SDS011;2540;50.928;6.856;2022-09-23T05:29:44;3.00;;;2.60;;
5042;SDS011;2540;50.928;6.856;2022-09-23T05:32:09;4.50;;;2.60;;
5042;SDS011;2540;50.928;6.856;2022-09-23T05:34:34;5.23;;;2.90;;
5042;SDS011;2540;50.928;6.856;2022-09-23T05:36:59;4.50;;;2.70;;
5042;SDS011;2540;50.928;6.856;2022-09-23T05:39:24;6.40;;;2.83;;
5042;SDS011;2540;50.928;6.856;2022-09-23T05:41:49;6.20;;;3.00;;
5042;SDS011;2540;50.928;6.856;2022-09-23T05:44:15;7.17;;;3.30;;
5042;SDS011;2540;50.928;6.856;2022-09-23T05:46:40;6.20;;;3.10;;
5042;SDS011;2540;50.928;6.856;2022-09-23T05:49:05;3.90;;;2.80;;
5042;SDS011;2540;50.928;6.856;2022-09-23T05:51:31;7.50;;;2.93;;
5042;SDS011;2540;50.928;6.856;2022-09-23T05:53:58;4.47;;;3.00;;
5042;SDS011;2540;50.928;6.856;2022-09-23T05:56:24;3.50;;;2.60;;
5042;SDS011;2540;50.928;6.856;2022-09-23T05:58:50;5.00;;;3.10;;
5042;SDS011;2540;50.928;6.856;2022-09-23T06:01:19;3.80;;;2.37;;
5042;SDS011;2540;50.928;6.856;2022-09-23T06:03:45;3.30;;;2.80;;
5042;SDS011;2540;50.928;6.856;2022-09-23T06:06:11;4.20;;;3.30;;
5042;SDS011;2540;50.928;6.856;2022-09-23T06:08:38;8.17;;;3.60;;
5042;SDS011;2540;50.928;6.856;2022-09-23T06:11:04;7.87;;;3.10;;
5042;SDS011;2540;50.928;6.856;2022-09-23T06:13:31;6.10;;;3.40;;
5042;SDS011;2540;50.928;6.856;2022-09-23T06:15:56;8.97;;;3.63;;
5042;SDS011;2540;50.928;6.856;2022-09-23T06:18:21;10.67;;;3.60;;
5042;SDS011;2540;50.928;6.856;2022-09-23T06:20:46;6.23;;;3.60;;
5042;SDS011;2540;50.928;6.856;2022-09-23T06:23:12;4.70;;;3.30;;
5042;SDS011;2540;50.928;6.856;2022-09-23T06:25:37;7.73;;;4.03;;
5042;SDS011;2540;50.928;6.856;2022-09-23T06:28:02;9.03;;;3.67;;
5042;SDS011;2540;50.928;6.856;2022-09-23T06:30:28;4.77;;;2.90;;
5042;SDS011;2540;50.928;6.856;2022-09-23T06:32:54;4.80;;;2.93;;
5042;SDS011;2540;50.928;6.856;2022-09-23T06:35:28;4.60;;;3.43;;
5042;SDS011;2540;50.928;6.856;2022-09-23T06:37:53;9.50;;;3.00;;
5042;SDS011;2540;50.928;6.856;2022-09-23T06:40:19;3.47;;;2.70;;
5042;SDS011;2540;50.928;6.856;2022-09-23T06:42:44;9.13;;;2.57;;
5042;SDS011;2540;50.928;6.856;2022-09-23T06:45:10;8.47;;;2.90;;
5042;SDS011;2540;50.928;6.856;2022-09-23T06:47:37;9.40;;;3.30;;
5042;SDS011;2540;50.928;6.856;2022-09-23T06:50:02;6.63;;;3.40;;
5042;SDS011;2540;50.928;6.856;2022-09-23T06:52:28;6.53;;;2.60;;
5042;SDS011;2540;50.928;6.856;2022-09-23T06:54:53;5.83;;;3.00;;
5042;SDS011;2540;50.928;6.856;2022-09-23T06:57:18;9.93;;;2.90;;
5042;SDS011;2540;50.928;6.856;2022-09-23T06:59:43;9.93;;;2.93;;
5042;SDS011;2540;50.928;6.856;2022-09-23T07:02:08;12.43;;;3.27;;
5042;SDS011;2540;50.928;6.856;2022-09-23T07:04:34;4.67;;;2.40;;
5042;SDS011;2540;50.928;6.856;2022-09-23T07:06:59;4.20;;;2.87;;
5042;SDS011;2540;50.928;6.856;2022-09-23T07:09:24;6.73;;;3.20;;
5042;SDS011;2540;50.928;6.856;2022-09-23T07:11:49;6.07;;;3.17;;
5042;SDS011;2540;50.928;6.856;2022-09-23T07:14:15;7.70;;;3.20;;
5042;SDS011;2540;50.928;6.856;2022-09-23T07:16:40;6.63;;;2.90;;
5042;SDS011;2540;50.928;6.856;2022-09-23T07:19:05;9.30;;;3.30;;
5042;SDS011;2540;50.928;6.856;2022-09-23T07:21:31;3.57;;;2.80;;
5042;SDS011;2540;50.928;6.856;2022-09-23T07:23:56;5.60;;;2.90;;
5042;SDS011;2540;50.928;6.856;2022-09-23T07:26:22;4.47;;;3.00;;
5042;SDS011;2540;50.928;6.856;2022-09-23T07:28:51;9.43;;;3.10;;
5042;SDS011;2540;50.928;6.856;2022-09-23T07:31:17;5.70;;;3.03;;
5042;SDS011;2540;50.928;6.856;2022-09-23T07:33:43;3.30;;;3.00;;
5042;SDS011;2540;50.928;6.856;2022-09-23T07:36:09;5.33;;;2.70;;
5042;SDS011;2540;50.928;6.856;2022-09-23T07:38:35;6.17;;;2.73;;
5042;SDS011;2540;50.928;6.856;2022-09-23T07:41:02;10.83;;;3.30;;
5042;SDS011;2540;50.928;6.856;2022-09-23T07:43:27;11.43;;;2.70;;
5042;SDS011;2540;50.928;6.856;2022-09-23T07:45:56;7.73;;;3.40;;
5042;SDS011;2540;50.928;6.856;2022-09-23T07:48:21;5.67;;;2.97;;
5042;SDS011;2540;50.928;6.856;2022-09-23T07:50:47;4.53;;;2.60;;
5042;SDS011;2540;50.928;6.856;2022-09-23T07:53:12;4.57;;;3.17;;
5042;SDS011;2540;50.928;6.856;2022-09-23T07:55:38;6.73;;;3.43;;
5042;SDS011;2540;50.928;6.856;2022-09-23T07:58:03;8.80;;;3.07;;
5042;SDS011;2540;50.928;6.856;2022-09-23T08:00:29;10.20;;;3.70;;
5042;SDS011;2540;50.928;6.856;2022-09-23T08:02:54;5.60;;;2.70;;
5042;SDS011;2540;50.928;6.856;2022-09-23T08:05:19;5.57;;;2.57;;
5042;SDS011;2540;50.928;6.856;2022-09-23T08:07:44;6.53;;;3.00;;
5042;SDS011;2540;50.928;6.856;2022-09-23T08:10:09;4.27;;;2.47;;
5042;SDS011;2540;50.928;6.856;2022-09-23T08:12:35;8.40;;;3.10;;
5042;SDS011;2540;50.928;6.856;2022-09-23T08:15:00;4.30;;;2.87;;
5042;SDS011;2540;50.928;6.856;2022-09-23T08:17:26;6.20;;;2.70;;
5042;SDS011;2540;50.928;6.856;2022-09-23T08:19:51;10.57;;;3.47;;
5042;SDS011;2540;50.928;6.856;2022-09-23T08:22:16;4.70;;;3.00;;
5042;SDS011;2540;50.928;6.856;2022-09-23T08:24:42;3.93;;;2.67;;
5042;SDS011;2540;50.928;6.856;2022-09-23T08:27:07;11.00;;;2.80;;
5042;SDS011;2540;50.928;6.856;2022-09-23T08:29:33;6.07;;;3.20;;
5042;SDS011;2540;50.928;6.856;2022-09-23T08:31:58;5.23;;;3.10;;
5042;SDS011;2540;50.928;6.856;2022-09-23T08:34:25;8.30;;;3.30;;
5042;SDS011;2540;50.928;6.856;2022-09-23T08:36:50;11.30;;;3.10;;
5042;SDS011;2540;50.928;6.856;2022-09-23T08:39:16;3.53;;;3.23;;
5042;SDS011;2540;50.928;6.856;2022-09-23T08:46:36;9.70;;;3.20;;
5042;SDS011;2540;50.928;6.856;2022-09-23T08:49:03;3.27;;;2.97;;
5042;SDS011;2540;50.928;6.856;2022-09-23T08:51:35;5.60;;;4.03;;
5042;SDS011;2540;50.928;6.856;2022-09-23T08:54:03;4.93;;;3.00;;
5042;SDS011;2540;50.928;6.856;2022-09-23T08:56:29;4.20;;;2.70;;
5042;SDS011;2540;50.928;6.856;2022-09-23T08:59:03;7.93;;;2.93;;
5042;SDS011;2540;50.928;6.856;2022-09-23T09:01:48;4.40;;;2.63;;
5042;SDS011;2540;50.928;6.856;2022-09-23T09:04:23;6.63;;;2.57;;
5042;SDS011;2540;50.928;6.856;2022-09-23T09:06:53;7.03;;;3.10;;
5042;SDS011;2540;50.928;6.856;2022-09-23T09:09:25;6.97;;;3.20;;
5042;SDS011;2540;50.928;6.856;2022-09-23T09:11:51;5.03;;;2.70;;
5042;SDS011;2540;50.928;6.856;2022-09-23T09:14:24;4.70;;;2.70;;
5042;SDS011;2540;50.928;6.856;2022-09-23T09:16:58;4.20;;;2.97;;
5042;SDS011;2540;50.928;6.856;2022-09-23T09:19:38;4.30;;;3.07;;
5042;SDS011;2540;50.928;6.856;2022-09-23T09:22:07;3.77;;;2.30;;
5042;SDS011;2540;50.928;6.856;2022-09-23T09:24:35;4.37;;;3.20;;
5042;SDS011;2540;50.928;6.856;2022-09-23T09:27:07;6.10;;;2.90;;
5042;SDS011;2540;50.928;6.856;2022-09-23T09:29:35;6.97;;;3.17;;
5042;SDS011;2540;50.928;6.856;2022-09-23T09:32:11;7.23;;;3.00;;
5042;SDS011;2540;50.928;6.856;2022-09-23T09:34:39;4.60;;;2.83;;
5042;SDS011;2540;50.928;6.856;2022-09-23T09:37:09;4.00;;;2.60;;
5042;SDS011;2540;50.928;6.856;2022-09-23T09:39:36;4.53;;;2.60;;
5042;SDS011;2540;50.928;6.856;2022-09-23T09:42:02;3.93;;;2.53;;
5042;SDS011;2540;50.928;6.856;2022-09-23T09:52:21;4.05;;;2.70;;
5042;SDS011;2540;50.928;6.856;2022-09-23T09:54:47;4.00;;;2.30;;
5042;SDS011;2540;50.928;6.856;2022-09-23T09:57:16;7.17;;;3.10;;
5042;SDS011;2540;50.928;6.856;2022-09-23T09:59:42;4.30;;;2.43;;
5042;SDS011;2540;50.928;6.856;2022-09-23T10:02:27;5.87;;;2.40;;
5042;SDS011;2540;50.928;6.856;2022-09-23T10:04:57;4.33;;;2.60;;
5042;SDS011;2540;50.928;6.856;2022-09-23T10:07:24;5.47;;;2.37;;
5042;SDS011;2540;50.928;6.856;2022-09-23T10:09:49;5.70;;;2.50;;
5042;SDS011;2540;50.928;6.856;2022-09-23T10:12:15;4.70;;;2.00;;
5042;SDS011;2540;50.928;6.856;2022-09-23T10:14:43;5.73;;;2.60;;
5042;SDS011;2540;50.928;6.856;2022-09-23T10:17:18;4.33;;;2.37;;
5042;SDS011;2540;50.928;6.856;2022-09-23T10:19:44;6.07;;;2.60;;
5042;SDS011;2540;50.928;6.856;2022-09-23T10:22:16;10.97;;;2.60;;
5042;SDS011;2540;50.928;6.856;2022-09-23T10:24:45;2.80;;;1.97;;
5042;SDS011;2540;50.928;6.856;2022-09-23T10:27:12;4.87;;;2.27;;
5042;SDS011;2540;50.928;6.856;2022-09-23T10:29:38;7.77;;;2.40;;
5042;SDS011;2540;50.928;6.856;2022-09-23T10:32:21;2.17;;;1.90;;
5042;SDS011;2540;50.928;6.856;2022-09-23T10:34:49;5.73;;;2.17;;
5042;SDS011;2540;50.928;6.856;2022-09-23T10:39:59;3.43;;;2.00;;
5042;SDS011;2540;50.928;6.856;2022-09-23T10:45:36;3.53;;;2.17;;
5042;SDS011;2540;50.928;6.856;2022-09-23T10:48:38;7.40;;;2.23;;
5042;SDS011;2540;50.928;6.856;2022-09-23T10:51:11;6.00;;;2.50;;
5042;SDS011;2540;50.928;6.856;2022-09-23T10:53:44;3.57;;;2.03;;
5042;SDS011;2540;50.928;6.856;2022-09-23T10:56:25;2.60;;;2.00;;
5042;SDS011;2540;50.928;6.856;2022-09-23T11:01:42;2.13;;;1.93;;
5042;SDS011;2540;50.928;6.856;2022-09-23T11:09:44;5.87;;;2.00;;
5042;SDS011;2540;50.928;6.856;2022-09-23T11:12:20;4.90;;;2.10;;
5042;SDS011;2540;50.928;6.856;2022-09-23T11:14:53;7.10;;;2.07;;
5042;SDS011;2540;50.928;6.856;2022-09-23T11:35:17;4.97;;;2.33;;
5042;SDS011;2540;50.928;6.856;2022-09-23T11:37:44;7.40;;;2.07;;
5042;SDS011;2540;50.928;6.856;2022-09-23T11:40:19;2.70;;;2.10;;
5042;SDS011;2540;50.928;6.856;2022-09-23T11:42:49;3.63;;;1.87;;
5042;SDS011;2540;50.928;6.856;2022-09-23T11:45:17;6.27;;;2.27;;
5042;SDS011;2540;50.928;6.856;2022-09-23T11:47:46;3.43;;;2.30;;
5042;SDS011;2540;50.928;6.856;2022-09-23T11:52:40;4.68;;;2.10;;
5042;SDS011;2540;50.928;6.856;2022-09-23T11:55:11;2.50;;;2.23;;
5042;SDS011;2540;50.928;6.856;2022-09-23T11:57:44;3.30;;;2.57;;
5042;SDS011;2540;50.928;6.856;2022-09-23T12:00:19;5.90;;;2.33;;
5042;SDS011;2540;50.928;6.856;2022-09-23T12:05:30;4.60;;;2.23;;
5042;SDS011;2540;50.928;6.856;2022-09-23T12:10:27;3.03;;;1.80;;
5042;SDS011;2540;50.928;6.856;2022-09-23T12:13:02;5.00;;;1.77;;
5042;SDS011;2540;50.928;6.856;2022-09-23T12:28:31;9.17;;;2.30;;
5042;SDS011;2540;50.928;6.856;2022-09-23T12:30:57;5.33;;;2.60;;
5042;SDS011;2540;50.928;6.856;2022-09-23T12:33:27;3.33;;;1.97;;
5042;SDS011;2540;50.928;6.856;2022-09-23T12:35:55;6.10;;;3.03;;
5042;SDS011;2540;50.928;6.856;2022-09-23T12:38:29;3.23;;;2.30;;
5042;SDS011;2540;50.928;6.856;2022-09-23T12:40:56;4.90;;;2.60;;
5042;SDS011;2540;50.928;6.856;2022-09-23T12:45:53;2.50;;;1.90;;
5042;SDS011;2540;50.928;6.856;2022-09-23T12:53:43;6.60;;;2.87;;
5042;SDS011;2540;50.928;6.856;2022-09-23T12:56:15;3.70;;;1.90;;
5042;SDS011;2540;50.928;6.856;2022-09-23T13:01:06;6.23;;;2.57;;
5042;SDS011;2540;50.928;6.856;2022-09-23T13:03:32;4.73;;;2.47;;
5042;SDS011;2540;50.928;6.856;2022-09-23T13:06:16;6.00;;;2.57;;
5042;SDS011;2540;50.928;6.856;2022-09-23T13:09:00;7.47;;;3.10;;
5042;SDS011;2540;50.928;6.856;2022-09-23T13:11:29;3.20;;;2.20;;
5042;SDS011;2540;50.928;6.856;2022-09-23T13:13:56;5.00;;;2.60;;
5042;SDS011;2540;50.928;6.856;2022-09-23T13:16:30;3.90;;;2.23;;
5042;SDS011;2540;50.928;6.856;2022-09-23T13:19:03;11.33;;;2.90;;
5042;SDS011;2540;50.928;6.856;2022-09-23T13:26:53;4.87;;;2.73;;
5042;SDS011;2540;50.928;6.856;2022-09-23T13:29:21;4.63;;;2.10;;
5042;SDS011;2540;50.928;6.856;2022-09-23T13:31:47;4.00;;;2.57;;
5042;SDS011;2540;50.928;6.856;2022-09-23T13:34:14;3.13;;;1.90;;
5042;SDS011;2540;50.928;6.856;2022-09-23T13:36:44;5.17;;;1.90;;
5042;SDS011;2540;50.928;6.856;2022-09-23T13:39:13;4.47;;;2.07;;
5042;SDS011;2540;50.928;6.856;2022-09-23T13:41:39;5.90;;;2.30;;
5042;SDS011;2540;50.928;6.856;2022-09-23T13:44:04;2.50;;;1.53;;
5042;SDS011;2540;50.928;6.856;2022-09-23T13:46:32;2.77;;;2.00;;
5042;SDS011;2540;50.928;6.856;2022-09-23T13:48:58;6.07;;;1.90;;
5042;SDS011;2540;50.928;6.856;2022-09-23T13:51:27;5.27;;;2.40;;
5042;SDS011;2540;50.928;6.856;2022-09-23T13:53:55;7.40;;;2.30;;
5042;SDS011;2540;50.928;6.856;2022-09-23T13:56:21;6.47;;;2.53;;
5042;SDS011;2540;50.928;6.856;2022-09-23T13:58:46;2.77;;;2.30;;
5042;SDS011;2540;50.928;6.856;2022-09-23T14:01:29;4.03;;;2.07;;
5042;SDS011;2540;50.928;6.856;2022-09-23T14:03:56;4.00;;;2.07;;
5042;SDS011;2540;50.928;6.856;2022-09-23T14:06:21;2.70;;;1.80;;
5042;SDS011;2540;50.928;6.856;2022-09-23T14:08:47;7.93;;;1.90;;
5042;SDS011;2540;50.928;6.856;2022-09-23T14:11:14;5.10;;;1.60;;
5042;SDS011;2540;50.928;6.856;2022-09-23T14:13:40;4.97;;;1.80;;
5042;SDS011;2540;50.928;6.856;2022-09-23T14:16:07;5.57;;;1.97;;
5042;SDS011;2540;50.928;6.856;2022-09-23T14:18:35;8.20;;;1.90;;
5042;SDS011;2540;50.928;6.856;2022-09-23T14:21:02;3.50;;;1.80;;
5042;SDS011;2540;50.928;6.856;2022-09-23T14:23:27;4.07;;;1.80;;
5042;SDS011;2540;50.928;6.856;2022-09-23T14:25:52;7.13;;;1.30;;
5042;SDS011;2540;50.928;6.856;2022-09-23T14:28:19;3.00;;;1.53;;
5042;SDS011;2540;50.928;6.856;2022-09-23T14:30:45;5.30;;;1.30;;
5042;SDS011;2540;50.928;6.856;2022-09-23T14:33:33;8.13;;;1.50;;
5042;SDS011;2540;50.928;6.856;2022-09-23T14:36:02;3.10;;;1.30;;
5042;SDS011;2540;50.928;6.856;2022-09-23T14:38:27;3.70;;;1.70;;
5042;SDS011;2540;50.928;6.856;2022-09-23T14:41:13;2.60;;;1.40;;
5042;SDS011;2540;50.928;6.856;2022-09-23T14:43:45;2.37;;;1.40;;
5042;SDS011;2540;50.928;6.856;2022-09-23T14:46:15;2.90;;;1.20;;
5042;SDS011;2540;50.928;6.856;2022-09-23T14:48:41;2.80;;;1.47;;
5042;SDS011;2540;50.928;6.856;2022-09-23T14:51:06;2.73;;;1.20;;
5042;SDS011;2540;50.928;6.856;2022-09-23T15:01:17;2.27;;;1.70;;
5042;SDS011;2540;50.928;6.856;2022-09-23T15:03:47;5.87;;;1.53;;
5042;SDS011;2540;50.928;6.856;2022-09-23T15:06:13;3.33;;;1.30;;
5042;SDS011;2540;50.928;6.856;2022-09-23T15:08:38;2.00;;;1.37;;
5042;SDS011;2540;50.928;6.856;2022-09-23T15:11:04;3.50;;;2.10;;
5042;SDS011;2540;50.928;6.856;2022-09-23T15:13:30;3.37;;;1.40;;
5042;SDS011;2540;50.928;6.856;2022-09-23T15:15:56;4.30;;;1.67;;
5042;SDS011;2540;50.928;6.856;2022-09-23T15:18:23;3.27;;;1.83;;
5042;SDS011;2540;50.928;6.856;2022-09-23T15:20:49;7.70;;;2.23;;
5042;SDS011;2540;50.928;6.856;2022-09-23T15:26:08;2.40;;;1.60;;
5042;SDS011;2540;50.928;6.856;2022-09-23T15:28:33;5.43;;;1.93;;
5042;SDS011;2540;50.928;6.856;2022-09-23T15:30:59;1.90;;;1.30;;
5042;SDS011;2540;50.928;6.856;2022-09-23T15:33:24;3.27;;;1.23;;
5042;SDS011;2540;50.928;6.856;2022-09-23T15:35:52;6.90;;;1.60;;
5042;SDS011;2540;50.928;6.856;2022-09-23T15:38:17;2.47;;;1.60;;
5042;SDS011;2540;50.928;6.856;2022-09-23T15:40:42;2.40;;;1.50;;
5042;SDS011;2540;50.928;6.856;2022-09-23T15:43:15;3.03;;;1.40;;
5042;SDS011;2540;50.928;6.856;2022-09-23T15:45:42;6.07;;;2.47;;
5042;SDS011;2540;50.928;6.856;2022-09-23T15:48:15;1.40;;;1.30;;
5042;SDS011;2540;50.928;6.856;2022-09-23T15:50:41;5.90;;;1.40;;
5042;SDS011;2540;50.928;6.856;2022-09-23T15:53:11;2.90;;;1.70;;
5042;SDS011;2540;50.928;6.856;2022-09-23T15:55:37;5.80;;;1.87;;
5042;SDS011;2540;50.928;6.856;2022-09-23T15:58:02;2.60;;;1.60;;
5042;SDS011;2540;50.928;6.856;2022-09-23T16:00:28;2.47;;;2.07;;
5042;SDS011;2540;50.928;6.856;2022-09-23T16:02:53;3.40;;;1.57;;
5042;SDS011;2540;50.928;6.856;2022-09-23T16:05:28;2.00;;;1.70;;
5042;SDS011;2540;50.928;6.856;2022-09-23T16:07:58;1.20;;;1.10;;
5042;SDS011;2540;50.928;6.856;2022-09-23T16:10:24;2.67;;;1.60;;
5042;SDS011;2540;50.928;6.856;2022-09-23T16:12:50;2.37;;;1.60;;
5042;SDS011;2540;50.928;6.856;2022-09-23T16:15:17;5.00;;;1.70;;
5042;SDS011;2540;50.928;6.856;2022-09-23T16:17:43;4.80;;;1.80;;
5042;SDS011;2540;50.928;6.856;2022-09-23T16:20:09;3.00;;;1.60;;
5042;SDS011;2540;50.928;6.856;2022-09-23T16:22:35;2.97;;;1.80;;
5042;SDS011;2540;50.928;6.856;2022-09-23T16:25:01;4.93;;;1.73;;
5042;SDS011;2540;50.928;6.856;2022-09-23T16:27:26;2.60;;;1.73;;
5042;SDS011;2540;50.928;6.856;2022-09-23T16:29:51;3.63;;;2.03;;
5042;SDS011;2540;50.928;6.856;2022-09-23T16:32:16;3.13;;;1.97;;
5042;SDS011;2540;50.928;6.856;2022-09-23T16:34:42;9.53;;;6.10;;
5042;SDS011;2540;50.928;6.856;2022-09-23T16:37:10;15.50;;;8.70;;
5042;SDS011;2540;50.928;6.856;2022-09-23T16:39:35;18.03;;;9.90;;
5042;SDS011;2540;50.928;6.856;2022-09-23T16:42:01;13.57;;;7.87;;
5042;SDS011;2540;50.928;6.856;2022-09-23T16:44:26;7.47;;;4.77;;
5042;SDS011;2540;50.928;6.856;2022-09-23T16:46:51;9.70;;;4.57;;
5042;SDS011;2540;50.928;6.856;2022-09-23T16:49:16;5.27;;;3.53;;
5042;SDS011;2540;50.928;6.856;2022-09-23T16:51:42;4.93;;;2.90;;
5042;SDS011;2540;50.928;6.856;2022-09-23T16:54:09;4.50;;;2.80;;
5042;SDS011;2540;50.928;6.856;2022-09-23T16:56:34;3.20;;;2.50;;
5042;SDS011;2540;50.928;6.856;2022-09-23T16:59:00;9.50;;;3.50;;
5042;SDS011;2540;50.928;6.856;2022-09-23T17:01:26;3.60;;;2.77;;
5042;SDS011;2540;50.928;6.856;2022-09-23T17:04:10;5.00;;;3.27;;
5042;SDS011;2540;50.928;6.856;2022-09-23T17:06:40;12.43;;;4.60;;
5042;SDS011;2540;50.928;6.856;2022-09-23T17:09:06;7.93;;;2.90;;
5042;SDS011;2540;50.928;6.856;2022-09-23T17:11:31;7.80;;;3.20;;
5042;SDS011;2540;50.928;6.856;2022-09-23T17:13:56;9.63;;;3.50;;
5042;SDS011;2540;50.928;6.856;2022-09-23T17:16:27;2.67;;;2.47;;
5042;SDS011;2540;50.928;6.856;2022-09-23T17:18:52;4.17;;;2.40;;
5042;SDS011;2540;50.928;6.856;2022-09-23T17:21:20;4.07;;;2.00;;
5042;SDS011;2540;50.928;6.856;2022-09-23T17:23:47;10.10;;;2.80;;
5042;SDS011;2540;50.928;6.856;2022-09-23T17:26:12;5.70;;;2.90;;
5042;SDS011;2540;50.928;6.856;2022-09-23T17:28:38;7.50;;;2.70;;
5042;SDS011;2540;50.928;6.856;2022-09-23T17:31:04;4.70;;;3.07;;